createdAt,value
2018-11-11T18:34:30.472Z,23.73
2018-11-11T18:36:38.520Z,24.03
2018-11-11T18:38:45.787Z,24.40
2018-11-11T18:40:53.272Z,24.64
2018-11-11T18:43:00.284Z,24.84
2018-11-11T18:45:07.992Z,25.01
2018-11-11T18:47:15.404Z,25.13
2018-11-11T18:49:22.125Z,25.24
2018-11-11T18:51:28.883Z,25.27
2018-11-11T18:53:35.640Z,25.34
2018-11-11T18:55:42.476Z,25.38
2018-11-11T18:57:49.431Z,25.42
2018-11-11T18:59:57.004Z,25.48
2018-11-11T19:02:03.776Z,25.47
2018-11-11T19:04:10.656Z,25.50
2018-11-11T19:06:17.499Z,25.43
2018-11-11T19:08:24.296Z,25.47
2018-11-11T19:10:32.554Z,25.47
2018-11-11T19:12:39.498Z,25.42
2018-11-11T19:14:46.230Z,25.46
2018-11-11T19:16:53.043Z,25.46
2018-11-11T19:18:59.750Z,25.47
2018-11-11T19:21:07.378Z,25.44
2018-11-11T19:23:14.545Z,25.45
2018-11-11T19:25:22.557Z,25.43
2018-11-11T19:27:29.552Z,25.39
2018-11-11T19:29:36.558Z,25.38
2018-11-11T19:31:43.489Z,25.38
2018-11-11T19:33:50.536Z,25.44
2018-11-11T19:35:57.514Z,25.43
2018-11-11T19:38:04.484Z,25.44
2018-11-11T19:40:14.225Z,25.39
2018-11-11T19:42:21.128Z,25.33
2018-11-11T19:44:28.018Z,25.35
2018-11-11T19:46:34.911Z,25.42
2018-11-11T19:48:41.879Z,25.39
2018-11-11T19:50:48.176Z,25.40
2018-11-11T19:52:56.128Z,25.42
2018-11-11T19:55:03.238Z,25.35
2018-11-11T19:57:10.422Z,25.29
2018-11-11T20:05:56.210Z,24.95
2018-11-11T20:08:03.440Z,24.87
2018-11-11T20:10:15.362Z,24.93
2018-11-11T20:12:22.423Z,25.00
2018-11-11T20:14:29.504Z,25.05
2018-11-11T20:16:36.326Z,25.06
2018-11-11T20:18:43.296Z,25.16
2018-11-11T20:20:50.029Z,25.20
2018-11-11T20:22:56.569Z,25.12
2018-11-11T20:25:03.368Z,25.09
2018-11-11T20:27:10.360Z,25.10
2018-11-11T20:29:17.021Z,25.07
2018-11-11T20:31:24.174Z,25.03
2018-11-11T20:33:30.840Z,25.04
2018-11-11T20:42:03.520Z,24.70
2018-11-11T20:44:10.836Z,24.67
2018-11-11T20:46:17.626Z,24.70
2018-11-11T20:48:24.716Z,24.90
2018-11-11T20:50:32.984Z,25.03
2018-11-11T20:52:40.039Z,25.28
